createdAt,value
2018-11-29T00:00:00.340Z,17.83
2018-11-29T00:01:00.116Z,17.83
2018-11-29T00:02:00.254Z,17.83
2018-11-29T00:03:00.493Z,17.83
2018-11-29T00:04:00.228Z,17.82
2018-11-29T00:05:00.241Z,17.81
2018-11-29T00:06:00.176Z,17.81
2018-11-29T00:07:00.060Z,17.81
2018-11-29T00:08:00.116Z,17.82
2018-11-29T00:09:00.589Z,17.81
2018-11-29T00:10:00.998Z,17.81
2018-11-29T00:11:00.497Z,17.8
2018-11-29T00:12:00.023Z,17.81
2018-11-29T00:13:00.637Z,17.79
2018-11-29T00:14:00.072Z,17.8
2018-11-29T00:15:00.347Z,17.81
2018-11-29T00:16:00.257Z,17.8
2018-11-29T00:17:00.320Z,17.8
2018-11-29T00:18:00.203Z,17.8
2018-11-29T00:19:00.201Z,17.77
2018-11-29T00:20:00.350Z,17.77
2018-11-29T00:21:00.297Z,17.77
2018-11-29T00:22:00.124Z,17.78
2018-11-29T00:23:00.500Z,17.77
2018-11-29T00:24:00.102Z,17.78
2018-11-29T00:25:00.510Z,17.79
2018-11-29T00:26:00.112Z,17.8
2018-11-29T00:27:00.405Z,17.78
2018-11-29T00:28:00.414Z,17.77
2018-11-29T00:29:00.110Z,17.76
2018-11-29T00:30:00.602Z,17.78
2018-11-29T00:31:00.194Z,17.76
2018-11-29T00:32:00.167Z,17.77
2018-11-29T00:33:00.349Z,17.76
2018-11-29T00:34:00.452Z,17.74
2018-11-29T00:35:00.254Z,17.78
2018-11-29T00:36:00.019Z,17.76
2018-11-29T00:37:00.270Z,17.74
2018-11-29T00:38:00.126Z,17.76
2018-11-29T00:39:00.155Z,17.73
2018-11-29T00:40:00.165Z,17.76
2018-11-29T00:41:00.107Z,17.76
2018-11-29T00:42:01.028Z,17.74
2018-11-29T00:43:00.107Z,17.73
2018-11-29T00:44:00.336Z,17.74
2018-11-29T00:45:00.334Z,17.73
2018-11-29T00:46:00.216Z,17.74
2018-11-29T00:47:00.235Z,17.73
2018-11-29T00:48:00.217Z,17.72
2018-11-29T00:49:00.069Z,17.73
2018-11-29T00:50:00.171Z,17.69
2018-11-29T00:51:00.119Z,17.73
2018-11-29T00:52:00.146Z,17.69
2018-11-29T00:53:00.230Z,17.7
2018-11-29T00:54:00.385Z,17.68
2018-11-29T00:55:00.228Z,17.72
2018-11-29T00:56:00.603Z,17.7
2018-11-29T00:57:00.469Z,17.67
2018-11-29T00:58:00.457Z,17.7
2018-11-29T00:59:00.377Z,17.7
2018-11-29T01:00:00.312Z,17.69
2018-11-29T01:01:00.141Z,17.69
2018-11-29T01:02:00.777Z,17.67
2018-11-29T01:03:00.142Z,17.69
2018-11-29T01:04:00.238Z,17.7
2018-11-29T01:05:00.362Z,17.68
2018-11-29T01:06:00.183Z,17.66
2018-11-29T01:07:00.156Z,17.68
2018-11-29T01:08:00.068Z,17.66
2018-11-29T01:09:00.543Z,17.65
2018-11-29T01:10:00.410Z,17.67
2018-11-29T01:11:00.315Z,17.65
2018-11-29T01:12:00.300Z,17.67
2018-11-29T01:13:00.189Z,17.67
2018-11-29T01:14:00.319Z,17.67
2018-11-29T01:15:00.532Z,17.66
2018-11-29T01:16:00.262Z,17.67
2018-11-29T01:17:00.130Z,17.65
2018-11-29T01:18:00.775Z,17.64
2018-11-29T01:19:00.046Z,17.64
2018-11-29T01:20:00.469Z,17.65
2018-11-29T01:21:00.147Z,17.66
2018-11-29T01:22:00.187Z,17.65
2018-11-29T01:23:00.278Z,17.65
2018-11-29T01:24:00.178Z,17.64
2018-11-29T01:25:00.053Z,17.63
2018-11-29T01:26:00.298Z,17.63
2018-11-29T01:27:00.439Z,17.62
2018-11-29T01:28:00.319Z,17.63
2018-11-29T01:29:00.082Z,17.63
2018-11-29T01:30:00.650Z,17.64
2018-11-29T01:31:00.545Z,17.62
2018-11-29T01:32:00.158Z,17.64
2018-11-29T01:33:00.054Z,17.63
2018-11-29T01:34:00.145Z,17.65
2018-11-29T01:35:00.296Z,17.63
2018-11-29T01:36:00.019Z,17.63
2018-11-29T01:37:00.262Z,17.62
2018-11-29T01:38:00.476Z,17.62
2018-11-29T01:39:00.216Z,17.62
2018-11-29T01:40:00.438Z,17.6
2018-11-29T01:41:00.137Z,17.62
2018-11-29T01:42:00.434Z,17.63
2018-11-29T01:43:00.185Z,17.61
2018-11-29T01:44:00.258Z,17.6
2018-11-29T01:45:00.124Z,17.63
2018-11-29T01:46:00.478Z,17.59
2018-11-29T01:47:00.344Z,17.59
2018-11-29T01:48:00.438Z,17.58
2018-11-29T01:49:00.371Z,17.59
2018-11-29T01:50:00.066Z,17.61
2018-11-29T01:51:00.276Z,17.59
2018-11-29T01:52:00.411Z,17.59
2018-11-29T01:53:00.297Z,17.56
2018-11-29T01:54:00.176Z,17.61
2018-11-29T01:55:00.603Z,17.56
2018-11-29T01:56:00.315Z,17.59
2018-11-29T01:57:00.115Z,17.58
2018-11-29T01:58:00.368Z,17.6
2018-11-29T01:59:00.425Z,17.56
2018-11-29T02:00:00.575Z,17.59
2018-11-29T02:01:00.462Z,17.59
2018-11-29T02:02:00.138Z,17.56
2018-11-29T02:03:00.004Z,17.55
2018-11-29T02:04:00.194Z,17.55
2018-11-29T02:05:00.587Z,17.56
2018-11-29T02:06:00.275Z,17.54
2018-11-29T02:07:00.596Z,17.53
2018-11-29T02:08:00.147Z,17.54
2018-11-29T02:09:00.004Z,17.54
2018-11-29T02:10:00.081Z,17.54
2018-11-29T02:11:00.245Z,17.54
2018-11-29T02:12:00.904Z,17.53
2018-11-29T02:13:00.182Z,17.55
2018-11-29T02:14:00.186Z,17.56
2018-11-29T02:15:00.065Z,17.53
2018-11-29T02:16:00.231Z,17.53
2018-11-29T02:17:00.054Z,17.54
2018-11-29T02:18:00.275Z,17.52
2018-11-29T02:18:59.968Z,17.54
2018-11-29T02:20:00.044Z,17.54
2018-11-29T02:21:00.288Z,17.52
2018-11-29T02:22:00.092Z,17.52
2018-11-29T02:23:00.386Z,17.54
2018-11-29T02:23:59.957Z,17.53
2018-11-29T02:25:00.096Z,17.53
2018-11-29T02:25:59.966Z,17.53
2018-11-29T02:27:00.097Z,17.52
2018-11-29T02:28:00.156Z,17.5
2018-11-29T02:28:59.898Z,17.52
2018-11-29T02:30:00.156Z,17.51
2018-11-29T02:31:00.139Z,17.49
2018-11-29T02:32:00.284Z,17.52
2018-11-29T02:33:00.354Z,17.5
2018-11-29T02:34:00.104Z,17.5
2018-11-29T02:35:00.387Z,17.5
2018-11-29T02:36:00.043Z,17.51
2018-11-29T02:37:00.283Z,17.49
2018-11-29T02:38:00.085Z,17.49
2018-11-29T02:39:00.046Z,17.46
2018-11-29T02:40:00.446Z,17.49
2018-11-29T02:41:00.176Z,17.49
2018-11-29T02:42:00.110Z,17.49
2018-11-29T02:43:00.140Z,17.46
2018-11-29T02:44:00.728Z,17.45
2018-11-29T02:45:00.998Z,17.47
2018-11-29T02:46:00.492Z,17.47
2018-11-29T02:46:59.945Z,17.48
2018-11-29T02:48:00.295Z,17.47
2018-11-29T02:49:00.280Z,17.48
2018-11-29T02:50:00.245Z,17.47
2018-11-29T02:51:00.340Z,17.48
2018-11-29T02:52:00.411Z,17.48
2018-11-29T02:53:00.137Z,17.47
2018-11-29T02:54:00.470Z,17.47
2018-11-29T02:55:00.388Z,17.46
2018-11-29T02:56:00.247Z,17.45
2018-11-29T02:57:00.186Z,17.46
2018-11-29T02:58:00.136Z,17.46
2018-11-29T02:59:00.127Z,17.44
2018-11-29T03:00:00.399Z,17.48
2018-11-29T03:00:59.992Z,17.47
2018-11-29T03:02:00.162Z,17.45
2018-11-29T03:03:00.295Z,17.45
2018-11-29T03:04:00.100Z,17.43
2018-11-29T03:05:00.520Z,17.46
2018-11-29T03:06:00.100Z,17.47
2018-11-29T03:07:00.105Z,17.49
2018-11-29T03:07:59.982Z,17.46
2018-11-29T03:09:00.147Z,17.47
2018-11-29T03:10:00.368Z,17.46
2018-11-29T03:11:00.166Z,17.46
2018-11-29T03:12:00.285Z,17.47
2018-11-29T03:13:01.004Z,17.46
2018-11-29T03:14:00.134Z,17.46
2018-11-29T03:15:00.476Z,17.44
2018-11-29T03:16:00.104Z,17.45
2018-11-29T03:17:00.244Z,17.44
2018-11-29T03:18:00.170Z,17.41
2018-11-29T03:19:00.522Z,17.44
2018-11-29T03:20:00.187Z,17.45
2018-11-29T03:21:00.070Z,17.43
2018-11-29T03:21:59.978Z,17.43
2018-11-29T03:23:00.153Z,17.43
2018-11-29T03:24:00.409Z,17.45
2018-11-29T03:25:00.047Z,17.43
2018-11-29T03:26:00.473Z,17.41
2018-11-29T03:27:00.250Z,17.44
2018-11-29T03:28:00.350Z,17.41
2018-11-29T03:29:00.367Z,17.43
2018-11-29T03:30:00.120Z,17.4
2018-11-29T03:31:00.258Z,17.43
2018-11-29T03:32:00.428Z,17.4
2018-11-29T03:33:00.411Z,17.4
2018-11-29T03:34:00.304Z,17.4
2018-11-29T03:35:00.236Z,17.45
2018-11-29T03:36:01.132Z,17.44
2018-11-29T03:37:00.248Z,17.41
2018-11-29T03:38:00.025Z,17.41
2018-11-29T03:39:00.185Z,17.4
2018-11-29T03:40:00.599Z,17.39
2018-11-29T03:41:00.313Z,17.4
2018-11-29T03:42:00.254Z,17.37
2018-11-29T03:43:00.269Z,17.41
2018-11-29T03:44:00.427Z,17.4
2018-11-29T03:45:00.282Z,17.41
2018-11-29T03:46:00.485Z,17.4
2018-11-29T03:47:00.046Z,17.39
2018-11-29T03:48:00.322Z,17.38
2018-11-29T03:49:00.281Z,17.39
2018-11-29T03:50:00.515Z,17.39
2018-11-29T03:51:00.180Z,17.37
2018-11-29T03:52:00.053Z,17.36
2018-11-29T03:53:00.189Z,17.37
2018-11-29T03:54:00.283Z,17.39
2018-11-29T03:55:00.057Z,17.4
2018-11-29T03:56:00.157Z,17.37
2018-11-29T03:57:00.017Z,17.4
2018-11-29T03:58:00.168Z,17.39
2018-11-29T03:59:00.062Z,17.37
2018-11-29T04:00:00.218Z,17.39
2018-11-29T04:01:00.099Z,17.38
2018-11-29T04:02:00.489Z,17.37
2018-11-29T04:03:00.466Z,17.37
2018-11-29T04:04:00.190Z,17.37
2018-11-29T04:05:00.172Z,17.37
2018-11-29T04:06:00.009Z,17.36
2018-11-29T04:07:00.087Z,17.37
2018-11-29T04:08:00.085Z,17.37
2018-11-29T04:09:00.102Z,17.35
2018-11-29T04:10:00.290Z,17.34
2018-11-29T04:11:00.028Z,17.34
2018-11-29T04:12:00.298Z,17.35
2018-11-29T04:13:00.463Z,17.33
2018-11-29T04:14:00.088Z,17.36
2018-11-29T04:14:59.900Z,17.34
2018-11-29T04:16:00.512Z,17.32
2018-11-29T04:17:00.227Z,17.35
2018-11-29T04:18:00.181Z,17.33
2018-11-29T04:19:00.270Z,17.33
2018-11-29T04:20:00.007Z,17.33
2018-11-29T04:21:00.149Z,17.34
2018-11-29T04:22:00.250Z,17.35
2018-11-29T04:23:00.133Z,17.36
2018-11-29T04:24:00.871Z,17.35
2018-11-29T04:25:00.229Z,17.35
2018-11-29T04:26:00.157Z,17.33
2018-11-29T04:27:00.363Z,17.35
2018-11-29T04:28:00.495Z,17.34
2018-11-29T04:28:59.992Z,17.33
2018-11-29T04:30:00.129Z,17.31
2018-11-29T04:31:00.473Z,17.32
2018-11-29T04:32:00.306Z,17.33
2018-11-29T04:33:00.180Z,17.34
2018-11-29T04:34:00.152Z,17.31
2018-11-29T04:35:00.264Z,17.33
2018-11-29T04:36:00.022Z,17.35
2018-11-29T04:37:00.474Z,17.35
2018-11-29T04:38:00.057Z,17.33
2018-11-29T04:39:00.208Z,17.35
2018-11-29T04:40:00.230Z,17.37
2018-11-29T04:41:00.540Z,17.37
2018-11-29T04:42:00.304Z,17.37
2018-11-29T04:43:00.124Z,17.36
2018-11-29T04:44:00.300Z,17.36
2018-11-29T04:45:00.052Z,17.37
2018-11-29T04:46:00.303Z,17.38
2018-11-29T04:47:00.083Z,17.37
2018-11-29T04:48:00.129Z,17.37
2018-11-29T04:49:00.102Z,17.37
2018-11-29T04:50:00.433Z,17.37
2018-11-29T04:50:59.916Z,17.4
2018-11-29T04:52:00.554Z,17.38
2018-11-29T04:52:59.955Z,17.39
2018-11-29T04:54:00.267Z,17.39
2018-11-29T04:55:00.155Z,17.39
2018-11-29T04:56:00.024Z,17.39
2018-11-29T04:57:00.139Z,17.43
2018-11-29T04:57:59.950Z,17.45
2018-11-29T04:59:00.142Z,17.44
2018-11-29T05:00:00.208Z,17.46
2018-11-29T05:01:00.181Z,17.46
2018-11-29T05:02:00.173Z,17.46
2018-11-29T05:03:00.032Z,17.48
2018-11-29T05:04:00.201Z,17.48
2018-11-29T05:04:59.892Z,17.49
2018-11-29T05:06:00.513Z,17.5
2018-11-29T05:06:59.905Z,17.5
2018-11-29T05:08:00.457Z,17.51
2018-11-29T05:09:00.145Z,17.54
2018-11-29T05:10:00.180Z,17.54
2018-11-29T05:11:00.133Z,17.55
2018-11-29T05:11:59.921Z,17.59
2018-11-29T05:13:00.325Z,17.59
2018-11-29T05:14:00.112Z,17.6
2018-11-29T05:15:00.076Z,17.62
2018-11-29T05:16:00.337Z,17.64
2018-11-29T05:17:00.366Z,17.66
2018-11-29T05:18:00.093Z,17.66
2018-11-29T05:19:00.054Z,17.69
2018-11-29T05:20:00.848Z,17.67
2018-11-29T05:21:00.267Z,17.69
2018-11-29T05:22:00.018Z,17.7
2018-11-29T05:23:00.600Z,17.72
2018-11-29T05:24:00.089Z,17.74
2018-11-29T05:25:00.103Z,17.76
2018-11-29T05:26:00.064Z,17.76
2018-11-29T05:27:00.154Z,17.8
2018-11-29T05:27:59.896Z,17.79
2018-11-29T05:29:00.129Z,17.81
2018-11-29T05:30:00.187Z,17.82
2018-11-29T05:31:00.140Z,17.82
2018-11-29T05:32:00.084Z,17.84
2018-11-29T05:32:59.923Z,17.87
2018-11-29T05:34:00.083Z,17.88
2018-11-29T05:34:59.930Z,17.87
2018-11-29T05:36:00.029Z,17.88
2018-11-29T05:37:00.405Z,17.91
2018-11-29T05:38:00.325Z,17.91
2018-11-29T05:39:00.152Z,17.92
2018-11-29T05:40:00.206Z,17.92
2018-11-29T05:41:00.122Z,17.95
2018-11-29T05:42:00.097Z,17.95
2018-11-29T05:42:59.995Z,17.95
2018-11-29T05:43:59.832Z,17.96
2018-11-29T05:44:59.949Z,17.98
2018-11-29T05:46:00.011Z,17.99
2018-11-29T05:46:59.948Z,17.98
2018-11-29T05:48:00.232Z,17.99
2018-11-29T05:49:00.064Z,18.02
2018-11-29T05:50:00.030Z,18
2018-11-29T05:51:00.664Z,18
2018-11-29T05:52:00.002Z,18.04
2018-11-29T05:53:00.010Z,18.04
2018-11-29T05:54:00.038Z,18.04
2018-11-29T05:55:00.331Z,18.05
2018-11-29T05:56:00.250Z,18.05
2018-11-29T05:57:00.121Z,18.06
2018-11-29T05:58:00.316Z,18.05
2018-11-29T05:59:00.146Z,18.05
2018-11-29T06:00:00.178Z,18.07
2018-11-29T06:01:00.920Z,18.06
2018-11-29T06:02:00.128Z,18.05
2018-11-29T06:03:00.339Z,18.07
2018-11-29T06:04:00.029Z,18.08
2018-11-29T06:04:59.910Z,18.06
2018-11-29T06:06:00.347Z,18.08
2018-11-29T06:07:00.242Z,18.08
2018-11-29T06:08:00.071Z,18.08
2018-11-29T06:09:00.310Z,18.07
2018-11-29T06:10:00.016Z,18.08
2018-11-29T06:10:59.974Z,18.06
2018-11-29T06:11:59.857Z,18.09
2018-11-29T06:13:00.190Z,18.08
2018-11-29T06:13:59.908Z,18.08
2018-11-29T06:15:00.049Z,18.08
2018-11-29T06:16:00.107Z,18.08
2018-11-29T06:17:00.373Z,18.09
2018-11-29T06:18:00.476Z,18.09
2018-11-29T06:19:00.180Z,18.08
2018-11-29T06:20:00.286Z,18.09
2018-11-29T06:20:59.933Z,18.08
2018-11-29T06:22:00.887Z,18.11
2018-11-29T06:23:00.430Z,18.07
2018-11-29T06:24:00.011Z,18.08
2018-11-29T06:25:00.141Z,18.05
2018-11-29T06:26:00.026Z,18.08
2018-11-29T06:27:00.105Z,18.07
2018-11-29T06:27:59.932Z,18.07
2018-11-29T06:29:00.289Z,18.08
2018-11-29T06:30:00.123Z,18.07
2018-11-29T06:31:00.468Z,18.06
2018-11-29T06:32:00.206Z,18.05
2018-11-29T06:32:59.856Z,18.07
2018-11-29T06:34:00.068Z,18.07
2018-11-29T06:34:59.948Z,18.06
2018-11-29T06:36:02.305Z,18.07
2018-11-29T06:37:00.283Z,18.05
2018-11-29T06:37:59.992Z,18.04
2018-11-29T06:39:00.394Z,18.06
2018-11-29T06:40:00.035Z,18.03
2018-11-29T06:41:00.136Z,18.04
2018-11-29T06:42:00.019Z,18.03
2018-11-29T06:43:00.145Z,18.04
2018-11-29T06:43:59.844Z,18.02
2018-11-29T06:45:00.043Z,18.02
2018-11-29T06:46:00.567Z,18.02
2018-11-29T06:47:00.255Z,18.02
2018-11-29T06:48:00.470Z,18.02
2018-11-29T06:48:59.904Z,18.02
2018-11-29T06:50:00.167Z,17.99
2018-11-29T06:50:59.965Z,18
2018-11-29T06:52:00.371Z,17.99
2018-11-29T06:52:59.926Z,18
2018-11-29T06:53:59.936Z,18.02
2018-11-29T06:55:00.447Z,18.02
2018-11-29T06:56:00.033Z,18
2018-11-29T06:57:00.124Z,18
2018-11-29T06:58:00.525Z,17.99
2018-11-29T06:59:00.285Z,18.02
2018-11-29T06:59:59.892Z,18.02
2018-11-29T07:01:00.003Z,18.03
2018-11-29T07:02:00.076Z,18.02
2018-11-29T07:03:00.391Z,18.04
2018-11-29T07:04:00.193Z,18.03
2018-11-29T07:05:00.036Z,18.03
2018-11-29T07:06:00.174Z,18.02
2018-11-29T07:07:00.076Z,18.05
2018-11-29T07:08:00.079Z,18.04
2018-11-29T07:09:00.143Z,18.07
2018-11-29T07:09:59.982Z,18.04
2018-11-29T07:10:59.838Z,18.03
2018-11-29T07:11:59.857Z,18.04
2018-11-29T07:13:00.021Z,18.05
2018-11-29T07:13:59.845Z,18.04
2018-11-29T07:14:59.971Z,18.04
2018-11-29T07:16:00.063Z,18.06
2018-11-29T07:16:59.931Z,18.05
2018-11-29T07:17:59.985Z,18.06
2018-11-29T07:18:59.868Z,18.03
2018-11-29T07:19:59.956Z,18.05
2018-11-29T07:21:00.047Z,18.04
2018-11-29T07:21:59.935Z,18.04
2018-11-29T07:23:00.091Z,18.05
2018-11-29T07:23:59.935Z,18.04
2018-11-29T07:24:59.975Z,18.04
2018-11-29T07:26:00.132Z,18.04
2018-11-29T07:26:59.900Z,18.05
2018-11-29T07:28:00.359Z,18.04
2018-11-29T07:28:59.925Z,18.03
2018-11-29T07:30:00.055Z,18.06
2018-11-29T07:30:59.987Z,18.06
2018-11-29T07:32:00.137Z,18.05
2018-11-29T07:33:00.209Z,18.04
2018-11-29T07:34:00.010Z,18.05
2018-11-29T07:35:00.068Z,18.06
2018-11-29T07:36:00.019Z,18.04
2018-11-29T07:37:00.419Z,18.06
2018-11-29T07:38:00.407Z,18.05
2018-11-29T07:39:00.335Z,18.04
2018-11-29T07:39:59.934Z,18.05
2018-11-29T07:41:00.015Z,18.07
2018-11-29T07:42:00.148Z,18.07
2018-11-29T07:43:00.176Z,18.07
2018-11-29T07:44:00.159Z,18.07
2018-11-29T07:44:59.997Z,18.06
2018-11-29T07:46:00.094Z,18.07
2018-11-29T07:47:00.282Z,18.06
2018-11-29T07:48:00.108Z,18.07
2018-11-29T07:49:00.143Z,18.06
2018-11-29T07:50:00.033Z,18.07
2018-11-29T07:51:00.102Z,18.08
2018-11-29T07:52:00.863Z,18.07
2018-11-29T07:53:00.026Z,18.06
2018-11-29T07:54:00.135Z,18.06
2018-11-29T07:55:00.044Z,18.05
2018-11-29T07:55:59.939Z,18.06
2018-11-29T07:56:59.904Z,18.07
2018-11-29T07:58:00.028Z,18.08
2018-11-29T07:59:00.274Z,18.06
2018-11-29T07:59:59.768Z,18.06
2018-11-29T08:01:00.203Z,18.06
2018-11-29T08:02:00.391Z,18.05
2018-11-29T08:03:00.251Z,18.08
2018-11-29T08:04:00.003Z,18.05
2018-11-29T08:05:00.360Z,18.06
2018-11-29T08:06:00.804Z,18.07
2018-11-29T08:07:00.014Z,18.06
2018-11-29T08:08:00.180Z,18.06
2018-11-29T08:08:59.873Z,18.07
2018-11-29T08:09:59.999Z,18.07
2018-11-29T08:10:59.960Z,18.07
2018-11-29T08:11:59.882Z,18.06
2018-11-29T08:12:59.927Z,18.05
2018-11-29T08:14:00.366Z,18.05
2018-11-29T08:15:00.066Z,18.06
2018-11-29T08:16:00.282Z,18.05
2018-11-29T08:16:59.907Z,18.05
2018-11-29T08:18:00.111Z,18.04
2018-11-29T08:19:00.202Z,18.04
2018-11-29T08:20:00.308Z,18.06
2018-11-29T08:20:59.946Z,18.07
2018-11-29T08:22:00.054Z,18.04
2018-11-29T08:23:00.308Z,18.07
2018-11-29T08:24:00.276Z,18.07
2018-11-29T08:24:59.893Z,18.05
2018-11-29T08:25:59.932Z,18.04
2018-11-29T08:27:00.275Z,18.07
2018-11-29T08:27:59.871Z,18.04
2018-11-29T08:28:59.999Z,18.05
2018-11-29T08:30:00.109Z,18.05
2018-11-29T08:31:00.169Z,18.04
2018-11-29T08:32:00.107Z,18.07
2018-11-29T08:33:00.016Z,18.07
2018-11-29T08:34:00.024Z,18.06
2018-11-29T08:35:00.130Z,18.07
2018-11-29T08:35:59.891Z,18.06
2018-11-29T08:37:00.091Z,18.05
2018-11-29T08:38:00.143Z,18.06
2018-11-29T08:39:00.077Z,18.07
2018-11-29T08:39:59.917Z,18.05
2018-11-29T08:41:00.888Z,18.06
2018-11-29T08:41:59.930Z,18.07
2018-11-29T08:43:00.038Z,18.05
2018-11-29T08:43:59.858Z,18.06
2018-11-29T08:44:59.996Z,18.05
2018-11-29T08:46:00.129Z,18.05
2018-11-29T08:46:59.857Z,18.07
2018-11-29T08:48:00.312Z,18.05
2018-11-29T08:48:59.885Z,18.06
2018-11-29T08:50:00.039Z,18.04
2018-11-29T08:50:59.805Z,18.07
2018-11-29T08:51:59.919Z,18.05
2018-11-29T08:53:00.153Z,18.07
2018-11-29T08:53:59.793Z,18.04
2018-11-29T08:55:00.085Z,18.04
2018-11-29T08:55:59.902Z,18.07
2018-11-29T08:56:59.875Z,18.08
2018-11-29T08:57:59.886Z,18.05
2018-11-29T08:59:00.034Z,18.05
2018-11-29T08:59:59.970Z,18.04
2018-11-29T09:00:59.964Z,18.06
2018-11-29T09:02:00.051Z,18.06
2018-11-29T09:03:02.605Z,18.06
2018-11-29T09:04:00.019Z,18.06
2018-11-29T09:05:00.114Z,18.07
2018-11-29T09:06:00.136Z,18.09
2018-11-29T09:07:00.103Z,18.06
2018-11-29T09:08:00.234Z,18.06
2018-11-29T09:09:00.098Z,18.07
2018-11-29T09:09:59.920Z,18.05
2018-11-29T09:11:00.049Z,18.08
2018-11-29T09:11:59.746Z,18.07
2018-11-29T09:13:00.084Z,18.09
2018-11-29T09:14:00.159Z,18.07
2018-11-29T09:15:00.313Z,18.06
2018-11-29T09:16:00.132Z,18.06
2018-11-29T09:17:00.182Z,18.09
2018-11-29T09:17:59.994Z,18.08
2018-11-29T09:18:59.968Z,18.06
2018-11-29T09:20:00.232Z,18.08
2018-11-29T09:20:59.782Z,18.07
2018-11-29T09:21:59.894Z,18.08
2018-11-29T09:23:00.176Z,18.07
2018-11-29T09:24:00.178Z,18.08
2018-11-29T09:25:00.002Z,18.07
2018-11-29T09:25:59.941Z,18.09
2018-11-29T09:26:59.920Z,18.08
2018-11-29T09:27:59.907Z,18.09
2018-11-29T09:29:00.106Z,18.06
2018-11-29T09:30:00.021Z,18.07
2018-11-29T09:31:00.380Z,18.08
2018-11-29T09:32:00.099Z,18.08
2018-11-29T09:32:59.893Z,18.08
2018-11-29T09:34:00.049Z,18.08
2018-11-29T09:34:59.944Z,18.1
2018-11-29T09:36:00.061Z,18.09
2018-11-29T09:36:59.741Z,18.1
2018-11-29T09:37:59.883Z,18.08
2018-11-29T09:39:00.098Z,18.09
2018-11-29T09:40:00.062Z,18.08
2018-11-29T09:41:00.292Z,18.08
2018-11-29T09:42:00.180Z,18.08
2018-11-29T09:43:00.106Z,18.09
2018-11-29T09:43:59.910Z,18.09
2018-11-29T09:45:00.193Z,18.1
2018-11-29T09:46:00.452Z,18.1
2018-11-29T09:47:00.445Z,18.08
2018-11-29T09:48:00.093Z,18.12
2018-11-29T09:49:00.305Z,18.11
2018-11-29T09:50:00.079Z,18.09
2018-11-29T09:50:59.727Z,18.09
2018-11-29T09:51:59.978Z,18.08
2018-11-29T09:52:59.960Z,18.11
2018-11-29T09:54:00.357Z,18.11
2018-11-29T09:55:00.306Z,18.09
2018-11-29T09:55:59.875Z,18.1
2018-11-29T09:56:59.958Z,18.1
2018-11-29T09:57:59.778Z,18.11
2018-11-29T09:59:00.010Z,18.08
2018-11-29T10:00:00.106Z,18.1
2018-11-29T10:00:59.947Z,18.13
2018-11-29T10:02:00.123Z,18.11
2018-11-29T10:03:00.305Z,18.11
2018-11-29T10:04:00.061Z,18.12
2018-11-29T10:04:59.736Z,18.12
2018-11-29T10:06:00.032Z,18.13
2018-11-29T10:06:59.776Z,18.14
2018-11-29T10:08:01.646Z,18.12
2018-11-29T10:08:59.984Z,18.12
2018-11-29T10:09:59.884Z,18.13
2018-11-29T10:11:00.022Z,18.12
2018-11-29T10:12:00.123Z,18.17
2018-11-29T10:12:59.967Z,18.17
2018-11-29T10:14:00.938Z,18.17
2018-11-29T10:14:59.900Z,18.15
2018-11-29T10:16:00.315Z,18.17
2018-11-29T10:16:59.828Z,18.18
2018-11-29T10:18:00.001Z,18.19
2018-11-29T10:18:59.998Z,18.21
2018-11-29T10:19:59.928Z,18.2
2018-11-29T10:21:00.314Z,18.19
2018-11-29T10:21:59.787Z,18.2
2018-11-29T10:23:00.252Z,18.2
2018-11-29T10:23:59.886Z,18.22
2018-11-29T10:24:59.903Z,18.22
2018-11-29T10:25:59.874Z,18.23
2018-11-29T10:27:00.034Z,18.22
2018-11-29T10:28:00.381Z,18.22
2018-11-29T10:28:59.981Z,18.22
2018-11-29T10:30:00.012Z,18.23
2018-11-29T10:30:59.887Z,18.23
2018-11-29T10:32:00.221Z,18.22
2018-11-29T10:33:00.029Z,18.22
2018-11-29T10:34:00.021Z,18.22
2018-11-29T10:34:59.882Z,18.2
2018-11-29T10:35:59.730Z,18.24
2018-11-29T10:36:59.969Z,18.21
2018-11-29T10:37:59.863Z,18.21
2018-11-29T10:39:00.013Z,18.23
2018-11-29T10:40:00.079Z,18.23
2018-11-29T10:40:59.979Z,18.22
2018-11-29T10:41:59.966Z,18.22
2018-11-29T10:43:00.042Z,18.22
2018-11-29T10:43:59.990Z,18.23
2018-11-29T10:45:00.286Z,18.22
2018-11-29T10:46:00.116Z,18.22
2018-11-29T10:46:59.797Z,18.22
2018-11-29T10:48:00.004Z,18.2
2018-11-29T10:48:59.822Z,18.22
2018-11-29T10:50:00.055Z,18.22
2018-11-29T10:50:59.990Z,18.22
2018-11-29T10:51:59.880Z,18.21
2018-11-29T10:53:00.215Z,18.22
2018-11-29T10:54:00.458Z,18.22
2018-11-29T10:55:00.020Z,18.22
2018-11-29T10:56:00.170Z,18.21
2018-11-29T10:57:00.373Z,18.22
2018-11-29T10:58:00.069Z,18.23
2018-11-29T10:58:59.820Z,18.22
2018-11-29T11:00:00.522Z,18.21
2018-11-29T11:01:00.197Z,18.18
2018-11-29T11:01:59.694Z,18.21
2018-11-29T11:02:59.865Z,18.19
2018-11-29T11:03:59.955Z,18.2
2018-11-29T11:04:59.959Z,18.21
2018-11-29T11:06:00.240Z,18.18
2018-11-29T11:07:00.328Z,18.2
2018-11-29T11:08:00.182Z,18.19
2018-11-29T11:09:00.051Z,18.21
2018-11-29T11:10:00.208Z,18.21
2018-11-29T11:10:59.961Z,18.19
2018-11-29T11:12:00.039Z,18.19
2018-11-29T11:12:59.738Z,18.19
2018-11-29T11:14:00.019Z,18.18
2018-11-29T11:15:00.006Z,18.2
2018-11-29T11:16:00.466Z,18.19
2018-11-29T11:17:00.044Z,18.22
2018-11-29T11:17:59.770Z,18.2
2018-11-29T11:18:59.914Z,18.22
2018-11-29T11:19:59.961Z,18.22
2018-11-29T11:20:59.888Z,18.19
2018-11-29T11:22:00.109Z,18.21
2018-11-29T11:23:00.187Z,18.22
2018-11-29T11:23:59.863Z,18.21
2018-11-29T11:25:00.118Z,18.2
2018-11-29T11:26:00.385Z,18.21
2018-11-29T11:26:59.991Z,18.21
2018-11-29T11:27:59.791Z,18.21
2018-11-29T11:28:59.957Z,18.19
2018-11-29T11:29:59.806Z,18.21
2018-11-29T11:31:00.341Z,18.22
2018-11-29T11:32:00.675Z,18.22
2018-11-29T11:33:00.073Z,18.22
2018-11-29T11:34:00.476Z,18.23
2018-11-29T11:34:59.814Z,18.21
2018-11-29T11:36:00.232Z,18.22
2018-11-29T11:36:59.975Z,18.24
2018-11-29T11:37:59.877Z,18.21
2018-11-29T11:38:59.768Z,18.22
2018-11-29T11:40:00.224Z,18.22
2018-11-29T11:40:59.806Z,18.22
2018-11-29T11:41:59.831Z,18.23
2018-11-29T11:42:59.966Z,18.22
2018-11-29T11:43:59.842Z,18.21
2018-11-29T11:44:59.930Z,18.22
2018-11-29T11:46:00.403Z,18.22
2018-11-29T11:47:00.069Z,18.21
2018-11-29T11:48:03.922Z,18.23
2018-11-29T11:49:00.468Z,18.22
2018-11-29T11:49:59.721Z,18.21
2018-11-29T11:51:00.127Z,18.21
2018-11-29T11:51:59.948Z,18.22
2018-11-29T11:52:59.933Z,18.22
2018-11-29T11:54:00.313Z,18.22
2018-11-29T11:55:00.145Z,18.2
2018-11-29T11:56:00.042Z,18.2
2018-11-29T11:56:59.767Z,18.21
2018-11-29T11:57:59.792Z,18.22
2018-11-29T11:58:59.675Z,18.21
2018-11-29T11:59:59.815Z,18.22
2018-11-29T12:01:00.229Z,18.22
2018-11-29T12:02:00.075Z,18.2
2018-11-29T12:02:59.934Z,18.19
2018-11-29T12:04:00.174Z,18.22
2018-11-29T12:04:59.886Z,18.19
2018-11-29T12:06:00.035Z,18.22
2018-11-29T12:07:00.318Z,18.2
2018-11-29T12:08:00.039Z,18.22
2018-11-29T12:09:00.237Z,18.21
2018-11-29T12:10:00.368Z,18.22
2018-11-29T12:10:59.897Z,18.19
2018-11-29T12:11:59.939Z,18.21
2018-11-29T12:12:59.797Z,18.21
2018-11-29T12:13:59.921Z,18.21
2018-11-29T12:15:00.021Z,18.21
2018-11-29T12:15:59.883Z,18.22
2018-11-29T12:16:59.983Z,18.2
2018-11-29T12:17:59.711Z,18.22
2018-11-29T12:19:02.811Z,18.22
2018-11-29T12:19:59.878Z,18.21
2018-11-29T12:21:00.351Z,18.21
2018-11-29T12:21:59.753Z,18.21
2018-11-29T12:23:00.006Z,18.19
2018-11-29T12:24:00.059Z,18.21
2018-11-29T12:24:59.890Z,18.21
2018-11-29T12:25:59.977Z,18.22
2018-11-29T12:26:59.812Z,18.22
2018-11-29T12:28:00.033Z,18.22
2018-11-29T12:28:59.824Z,18.22
2018-11-29T12:29:59.917Z,18.21
2018-11-29T12:31:00.023Z,18.22
2018-11-29T12:31:59.908Z,18.21
2018-11-29T12:32:59.939Z,18.22
2018-11-29T12:33:59.891Z,18.19
2018-11-29T12:35:00.178Z,18.2
2018-11-29T12:35:59.734Z,18.19
2018-11-29T12:36:59.910Z,18.2
2018-11-29T12:37:59.990Z,18.2
2018-11-29T12:39:00.137Z,18.21
2018-11-29T12:40:00.357Z,18.19
2018-11-29T12:40:59.967Z,18.19
2018-11-29T12:41:59.910Z,18.18
2018-11-29T12:42:59.722Z,18.21
2018-11-29T12:44:00.256Z,18.19
2018-11-29T12:45:00.100Z,18.19
2018-11-29T12:46:00.366Z,18.2
2018-11-29T12:47:00.173Z,18.18
2018-11-29T12:47:59.945Z,18.2
2018-11-29T12:48:59.759Z,18.2
2018-11-29T12:49:59.803Z,18.18
2018-11-29T12:51:00.010Z,18.2
2018-11-29T12:52:00.102Z,18.21
2018-11-29T12:53:00.357Z,18.21
2018-11-29T12:54:00.205Z,18.2
2018-11-29T12:55:00.069Z,18.18